createdAt,value
2022-12-14T00:01:40.268Z,10.98
2022-12-14T00:04:07.545Z,7.45
2022-12-14T00:06:35.053Z,11.73
2022-12-14T00:09:03.990Z,11.57
2022-12-14T00:11:32.866Z,10.63
2022-12-14T00:14:01.139Z,11.20
2022-12-14T00:16:29.391Z,9.65
2022-12-14T00:18:57.512Z,9.85
2022-12-14T00:21:25.302Z,8.45
2022-12-14T00:23:53.030Z,8.13
2022-12-14T00:26:21.395Z,9.40
2022-12-14T00:28:49.666Z,8.40
2022-12-14T00:31:17.165Z,8.88
2022-12-14T00:33:44.532Z,9.00
2022-12-14T00:36:12.287Z,8.30
2022-12-14T00:38:40.051Z,7.95
2022-12-14T00:41:07.777Z,7.68
2022-12-14T00:43:35.028Z,9.20
2022-12-14T00:46:02.497Z,7.60
2022-12-14T00:48:30.453Z,7.88
2022-12-14T00:50:58.058Z,8.85
2022-12-14T00:53:26.063Z,6.97
2022-12-14T00:55:53.618Z,8.00
2022-12-14T00:58:21.969Z,7.82
2022-12-14T01:00:58.690Z,6.53
2022-12-14T01:03:26.310Z,6.72
2022-12-14T01:05:53.866Z,8.27
2022-12-14T01:08:21.687Z,6.82
2022-12-14T01:10:50.446Z,7.90
2022-12-14T01:13:17.661Z,7.72
2022-12-14T01:15:44.956Z,8.35
2022-12-14T01:18:13.040Z,8.32
2022-12-14T01:20:40.329Z,7.40
2022-12-14T01:23:07.610Z,8.35
2022-12-14T01:25:34.859Z,7.88
2022-12-14T01:28:02.098Z,7.07
2022-12-14T01:30:29.319Z,7.40
2022-12-14T01:32:56.511Z,7.50
2022-12-14T01:35:23.787Z,7.38
2022-12-14T01:37:51.003Z,7.50
2022-12-14T01:40:18.237Z,7.95
2022-12-14T01:42:45.490Z,7.65
2022-12-14T01:45:17.716Z,7.97
2022-12-14T01:47:47.733Z,6.45
2022-12-14T01:50:27.976Z,8.20
2022-12-14T01:52:59.014Z,7.03
2022-12-14T01:55:34.422Z,8.02
2022-12-14T01:58:04.132Z,7.55
2022-12-14T02:00:31.836Z,6.45
2022-12-14T02:03:02.907Z,7.22
2022-12-14T02:05:31.020Z,7.07
2022-12-14T02:07:58.494Z,8.10
2022-12-14T02:10:26.817Z,7.07
2022-12-14T02:13:01.237Z,7.60
2022-12-14T02:15:28.726Z,7.22
2022-12-14T02:17:56.553Z,7.97
2022-12-14T02:20:24.508Z,8.70
2022-12-14T02:23:14.993Z,7.55
2022-12-14T02:25:54.388Z,6.88
2022-12-14T02:28:40.501Z,7.68
2022-12-14T02:31:13.846Z,8.27
2022-12-14T02:33:44.246Z,7.40
2022-12-14T02:36:15.516Z,7.93
2022-12-14T02:38:46.359Z,7.63
2022-12-14T02:41:24.286Z,7.47
2022-12-14T02:44:10.302Z,7.45
2022-12-14T02:46:48.721Z,6.85
2022-12-14T02:49:23.582Z,7.55
2022-12-14T02:52:01.311Z,7.32
2022-12-14T02:54:34.729Z,7.40
2022-12-14T02:57:13.495Z,7.65
2022-12-14T02:59:41.483Z,6.65
2022-12-14T03:02:08.997Z,6.63
2022-12-14T03:04:47.381Z,8.23
2022-12-14T03:07:33.616Z,7.10
2022-12-14T03:10:13.737Z,4.57
2022-12-14T03:12:43.716Z,7.53
2022-12-14T03:15:11.823Z,7.28
2022-12-14T03:17:39.354Z,7.60
2022-12-14T03:20:09.960Z,7.35
2022-12-14T03:22:43.877Z,7.82
2022-12-14T03:25:19.988Z,6.30
2022-12-14T03:27:50.280Z,7.53
2022-12-14T03:30:43.803Z,7.45
2022-12-14T03:33:08.363Z,7.90
2022-12-14T03:35:39.445Z,7.55
2022-12-14T03:38:27.954Z,7.25
2022-12-14T03:40:58.190Z,7.75
2022-12-14T03:43:36.096Z,7.72
2022-12-14T03:46:29.821Z,7.35
2022-12-14T03:49:00.666Z,7.32
2022-12-14T03:51:30.803Z,7.25
2022-12-14T03:54:18.970Z,7.15
2022-12-14T03:56:51.248Z,6.97
2022-12-14T03:59:32.601Z,8.35
2022-12-14T04:02:04.950Z,7.55
2022-12-14T04:04:40.585Z,7.75
2022-12-14T04:07:14.011Z,7.53
2022-12-14T04:09:47.605Z,6.93
2022-12-14T04:12:39.947Z,6.85
2022-12-14T04:15:34.226Z,6.80
2022-12-14T04:18:22.995Z,8.68
2022-12-14T04:20:52.243Z,7.05
2022-12-14T04:23:46.123Z,8.18
2022-12-14T04:26:16.128Z,7.38
2022-12-14T04:31:30.714Z,7.82
2022-12-14T04:33:59.421Z,7.95
2022-12-14T04:36:41.531Z,7.20
2022-12-14T04:39:12.409Z,7.55
2022-12-14T04:41:41.967Z,7.18
2022-12-14T04:44:12.968Z,8.70
2022-12-14T04:46:41.176Z,7.57
2022-12-14T04:49:17.714Z,7.88
2022-12-14T04:51:48.039Z,7.63
2022-12-14T04:54:23.364Z,7.55
2022-12-14T04:56:53.902Z,8.02
2022-12-14T04:59:21.454Z,6.70
2022-12-14T05:01:57.961Z,7.03
2022-12-14T05:07:11.665Z,6.90
2022-12-14T05:09:59.723Z,7.88
2022-12-14T05:12:42.301Z,7.60
2022-12-14T05:15:24.972Z,6.47
2022-12-14T05:17:52.773Z,8.18
2022-12-14T05:20:21.498Z,5.82
2022-12-14T05:22:49.631Z,8.27
2022-12-14T05:25:17.264Z,7.38
2022-12-14T05:27:44.552Z,6.68
2022-12-14T05:30:12.091Z,7.45
2022-12-14T05:32:39.900Z,6.97
2022-12-14T05:35:08.457Z,6.53
2022-12-14T05:37:35.637Z,5.97
2022-12-14T05:40:02.988Z,6.43
2022-12-14T05:42:31.302Z,6.63
2022-12-14T05:44:58.630Z,7.55
2022-12-14T05:47:25.914Z,7.25
2022-12-14T05:49:53.192Z,6.00
2022-12-14T05:52:20.388Z,7.03
2022-12-14T05:54:47.612Z,6.20
2022-12-14T05:57:14.828Z,5.78
2022-12-14T05:59:42.040Z,6.47
2022-12-14T06:02:09.412Z,6.68
2022-12-14T06:04:36.757Z,6.32
2022-12-14T06:07:04.387Z,6.35
2022-12-14T06:09:31.671Z,6.20
2022-12-14T06:11:58.925Z,5.47
2022-12-14T06:14:26.187Z,6.40
2022-12-14T06:16:53.488Z,5.38
2022-12-14T06:19:20.803Z,5.22
2022-12-14T06:21:48.192Z,5.20
2022-12-14T06:24:15.433Z,6.25
2022-12-14T06:26:42.862Z,5.63
2022-12-14T06:29:17.982Z,6.25
2022-12-14T06:31:45.826Z,4.90
2022-12-14T06:34:16.957Z,5.38
2022-12-14T06:36:44.293Z,5.47
2022-12-14T06:39:15.900Z,4.78
2022-12-14T06:41:43.585Z,5.53
2022-12-14T06:44:12.307Z,5.20
2022-12-14T06:46:40.042Z,5.85
2022-12-14T06:49:07.781Z,5.32
2022-12-14T06:51:41.508Z,4.80
2022-12-14T06:54:11.306Z,5.57
2022-12-14T06:56:39.067Z,4.50
2022-12-14T06:59:08.820Z,4.68
2022-12-14T07:01:37.125Z,5.78
2022-12-14T07:04:05.138Z,5.63
2022-12-14T07:06:34.000Z,5.88
2022-12-14T07:09:01.611Z,5.57
2022-12-14T07:11:29.730Z,5.47
2022-12-14T07:13:57.304Z,5.63
2022-12-14T07:16:26.247Z,5.95
2022-12-14T07:18:54.932Z,5.60
2022-12-14T07:21:22.639Z,5.40
2022-12-14T07:23:52.340Z,5.25
2022-12-14T07:26:24.129Z,5.03
2022-12-14T07:28:51.735Z,5.55
2022-12-14T07:31:23.418Z,6.10
2022-12-14T07:33:52.831Z,4.60
2022-12-14T07:36:20.803Z,5.38
2022-12-14T07:38:49.005Z,5.68
2022-12-14T07:41:22.293Z,5.68
2022-12-14T07:43:50.393Z,5.65
2022-12-14T07:46:19.515Z,6.55
2022-12-14T07:48:48.228Z,6.20
2022-12-14T07:51:16.544Z,6.00
2022-12-14T07:53:44.176Z,6.00
2022-12-14T07:56:16.172Z,5.88
2022-12-14T07:58:43.697Z,5.95
2022-12-14T08:01:30.041Z,5.95
2022-12-14T08:03:58.689Z,5.90
2022-12-14T08:06:27.183Z,6.45
2022-12-14T08:08:54.776Z,6.60
2022-12-14T08:11:22.531Z,6.38
2022-12-14T08:13:56.935Z,6.40
2022-12-14T08:16:24.727Z,5.82
2022-12-14T08:18:53.839Z,6.63
2022-12-14T08:21:22.205Z,6.80
2022-12-14T08:23:50.084Z,6.25
2022-12-14T08:26:17.419Z,5.82
2022-12-14T08:28:44.697Z,6.45
2022-12-14T08:31:14.160Z,7.88
2022-12-14T08:33:42.958Z,7.03
2022-12-14T08:36:12.288Z,7.18
2022-12-14T08:38:40.468Z,6.95
2022-12-14T08:41:08.728Z,7.13
2022-12-14T08:43:36.442Z,9.07
2022-12-14T08:46:05.687Z,7.93
2022-12-14T08:48:32.968Z,8.98
2022-12-14T08:51:04.071Z,8.38
2022-12-14T08:53:32.238Z,8.52
2022-12-14T08:56:00.205Z,8.05
2022-12-14T08:58:27.455Z,8.63
2022-12-14T09:01:03.908Z,8.82
2022-12-14T09:03:31.700Z,9.13
2022-12-14T09:06:03.451Z,9.25
2022-12-14T09:08:31.426Z,10.45
2022-12-14T09:10:58.786Z,8.50
2022-12-14T09:13:26.336Z,8.45
2022-12-14T09:15:57.893Z,8.38
2022-12-14T09:18:25.169Z,9.75
2022-12-14T09:20:56.127Z,9.10
2022-12-14T09:23:24.316Z,10.02
2022-12-14T09:26:01.309Z,9.10
2022-12-14T09:28:28.678Z,8.05
2022-12-14T09:30:57.300Z,9.02
2022-12-14T09:33:25.110Z,9.93
2022-12-14T09:35:52.541Z,9.90
2022-12-14T09:38:21.230Z,10.45
2022-12-14T09:40:56.181Z,11.38
2022-12-14T09:43:36.860Z,10.65
2022-12-14T09:46:24.669Z,10.05
2022-12-14T09:48:52.862Z,9.82
2022-12-14T09:51:21.228Z,9.82
2022-12-14T09:53:50.596Z,10.70
2022-12-14T09:56:19.378Z,9.88
2022-12-14T09:58:57.443Z,9.77
2022-12-14T10:01:43.878Z,10.10
2022-12-14T10:06:44.673Z,9.18
2022-12-14T10:09:23.975Z,9.45
2022-12-14T10:12:06.311Z,9.68
2022-12-14T10:14:42.709Z,8.90
2022-12-14T10:17:20.752Z,9.20
2022-12-14T10:22:20.539Z,8.43
2022-12-14T10:24:55.381Z,8.23
2022-12-14T10:27:23.940Z,9.18
2022-12-14T10:30:05.984Z,9.65
2022-12-14T10:32:37.492Z,8.52
2022-12-14T10:35:15.351Z,8.15
2022-12-14T10:38:02.880Z,9.95
2022-12-14T10:40:34.551Z,9.60
2022-12-14T10:43:28.585Z,9.02
2022-12-14T10:45:59.322Z,9.82
2022-12-14T10:48:33.078Z,9.65
2022-12-14T10:51:05.652Z,9.45
2022-12-14T10:53:40.803Z,9.38
2022-12-14T10:56:13.869Z,10.50
2022-12-14T10:58:41.151Z,10.38
2022-12-14T11:01:12.898Z,9.95
2022-12-14T11:03:40.860Z,9.65
2022-12-14T11:06:20.023Z,8.88
2022-12-14T11:08:48.790Z,9.05
2022-12-14T11:11:19.431Z,8.90
2022-12-14T11:13:51.219Z,9.10
2022-12-14T11:16:20.053Z,9.45
2022-12-14T11:18:56.492Z,9.50
2022-12-14T11:21:29.269Z,9.05
2022-12-14T11:23:56.550Z,9.25
2022-12-14T11:26:37.276Z,9.93
2022-12-14T11:29:06.354Z,8.13
2022-12-14T11:31:41.009Z,9.27
2022-12-14T11:34:22.107Z,9.88
2022-12-14T11:36:50.086Z,9.45
2022-12-14T11:39:24.649Z,9.25
2022-12-14T11:42:00.997Z,9.40
2022-12-14T11:44:30.449Z,9.32
2022-12-14T11:47:00.808Z,9.82
2022-12-14T11:49:40.472Z,9.25
2022-12-14T11:52:12.751Z,9.80
2022-12-14T11:54:49.806Z,9.27
2022-12-14T11:57:31.059Z,7.72
2022-12-14T12:00:18.543Z,8.70
2022-12-14T12:02:50.457Z,9.15
2022-12-14T12:05:19.691Z,9.50
2022-12-14T12:07:50.012Z,9.35
2022-12-14T12:10:21.589Z,9.32
2022-12-14T12:12:54.366Z,8.68
2022-12-14T12:15:24.417Z,9.55
2022-12-14T12:17:54.017Z,9.15
2022-12-14T12:20:21.241Z,8.23
2022-12-14T12:22:50.437Z,8.50
2022-12-14T12:25:30.940Z,8.50
2022-12-14T12:28:08.150Z,7.47
2022-12-14T12:30:37.420Z,8.20
2022-12-14T12:33:17.191Z,8.18
2022-12-14T12:35:48.996Z,8.23
2022-12-14T12:38:16.205Z,8.40
2022-12-14T12:40:56.771Z,7.72
2022-12-14T12:43:27.104Z,7.80
2022-12-14T12:45:59.240Z,7.57
2022-12-14T12:48:33.311Z,7.97
2022-12-14T12:51:02.242Z,7.95
2022-12-14T12:53:37.788Z,8.70
2022-12-14T12:56:11.466Z,7.60
2022-12-14T12:58:40.129Z,7.68
2022-12-14T13:01:46.305Z,7.78
2022-12-14T13:04:16.518Z,7.95
2022-12-14T13:06:51.366Z,8.60
2022-12-14T13:09:35.841Z,7.57
2022-12-14T13:12:04.014Z,8.48
2022-12-14T13:14:42.920Z,8.55
2022-12-14T13:17:40.479Z,8.05
2022-12-14T13:20:16.383Z,8.18
2022-12-14T13:22:43.751Z,8.30
2022-12-14T13:25:22.195Z,7.47
2022-12-14T13:27:57.627Z,7.60
2022-12-14T13:30:34.909Z,7.60
2022-12-14T13:33:20.462Z,7.95
2022-12-14T13:35:50.804Z,7.82
2022-12-14T13:38:56.466Z,8.27
2022-12-14T13:41:42.119Z,7.22
2022-12-14T13:44:34.402Z,7.65
2022-12-14T13:47:05.332Z,6.82
2022-12-14T13:49:32.854Z,7.50
2022-12-14T13:52:00.899Z,7.20
2022-12-14T13:54:36.830Z,7.32
2022-12-14T13:57:12.738Z,7.30
2022-12-14T13:59:42.272Z,7.60
2022-12-14T14:02:35.995Z,7.93
2022-12-14T14:05:15.531Z,7.15
2022-12-14T14:07:53.959Z,6.85
2022-12-14T14:10:30.543Z,6.82
2022-12-14T14:12:57.780Z,7.03
2022-12-14T14:15:33.679Z,6.43
2022-12-14T14:18:07.712Z,6.90
2022-12-14T14:20:34.969Z,6.63
2022-12-14T14:23:17.335Z,6.65
2022-12-14T14:25:44.543Z,6.30
2022-12-14T14:28:22.216Z,7.20
2022-12-14T14:30:51.567Z,6.32
2022-12-14T14:33:47.125Z,7.15
2022-12-14T14:36:27.012Z,6.45
2022-12-14T14:38:56.014Z,6.75
2022-12-14T14:41:29.035Z,6.22
2022-12-14T14:43:59.638Z,5.97
2022-12-14T14:46:41.701Z,5.88
2022-12-14T14:49:38.601Z,6.65
2022-12-14T14:52:44.082Z,6.43
2022-12-14T14:55:53.368Z,6.18
2022-12-14T14:58:24.924Z,6.00
2022-12-14T15:01:04.452Z,5.95
2022-12-14T15:03:41.796Z,6.50
2022-12-14T15:06:14.746Z,6.10
2022-12-14T15:08:44.746Z,5.93
2022-12-14T15:11:14.878Z,5.80
2022-12-14T15:13:52.565Z,6.18
2022-12-14T15:16:24.587Z,6.30
2022-12-14T15:18:52.007Z,5.80
2022-12-14T15:21:19.815Z,6.35
2022-12-14T15:23:49.607Z,7.03
2022-12-14T15:26:27.432Z,6.05
2022-12-14T15:28:58.582Z,5.93
2022-12-14T15:31:31.224Z,6.53
2022-12-14T15:33:59.259Z,6.55
2022-12-14T15:36:30.161Z,5.78
2022-12-14T15:38:58.294Z,6.20
2022-12-14T15:41:27.697Z,6.18
2022-12-14T15:43:59.752Z,6.35
2022-12-14T15:46:29.071Z,6.72
2022-12-14T15:48:58.129Z,6.78
2022-12-14T15:51:32.879Z,6.93
2022-12-14T15:54:01.871Z,7.15
2022-12-14T15:56:37.332Z,6.72
2022-12-14T15:59:08.156Z,6.80
2022-12-14T16:01:38.329Z,6.03
2022-12-14T16:04:07.595Z,6.00
2022-12-14T16:06:38.870Z,6.40
2022-12-14T16:09:08.898Z,6.60
2022-12-14T16:11:36.170Z,6.60
2022-12-14T16:14:05.158Z,6.47
2022-12-14T16:16:32.513Z,6.22
2022-12-14T16:19:20.377Z,6.68
2022-12-14T16:21:49.636Z,6.00
2022-12-14T16:24:24.648Z,6.60
2022-12-14T16:26:57.112Z,5.97
2022-12-14T16:29:28.831Z,6.18
2022-12-14T16:32:05.599Z,5.88
2022-12-14T16:34:33.494Z,6.63
2022-12-14T16:37:30.998Z,6.32
2022-12-14T16:39:49.801Z,6.28
2022-12-14T16:42:20.763Z,6.40
2022-12-14T16:44:48.896Z,6.50
2022-12-14T16:47:16.249Z,6.30
2022-12-14T16:49:43.695Z,6.13
2022-12-14T16:52:21.252Z,6.20
2022-12-14T16:55:14.959Z,6.38
2022-12-14T16:57:51.659Z,6.38
2022-12-14T17:00:25.098Z,6.40
2022-12-14T17:02:57.412Z,6.15
2022-12-14T17:05:25.440Z,6.25
2022-12-14T17:07:52.761Z,6.18
2022-12-14T17:10:25.081Z,6.43
2022-12-14T17:12:56.058Z,6.00
2022-12-14T17:15:24.873Z,6.03
2022-12-14T17:17:53.508Z,5.78
2022-12-14T17:20:29.192Z,6.55
2022-12-14T17:22:58.735Z,6.20
2022-12-14T17:25:30.123Z,6.38
2022-12-14T17:27:57.533Z,6.40
2022-12-14T17:30:25.135Z,5.18
2022-12-14T17:32:53.477Z,5.90
2022-12-14T17:35:22.584Z,6.45
2022-12-14T17:37:49.966Z,5.93
2022-12-14T17:40:17.375Z,5.85
2022-12-14T17:42:47.876Z,5.53
2022-12-14T17:45:19.528Z,5.63
2022-12-14T17:47:46.845Z,5.97
2022-12-14T17:50:15.339Z,6.03
2022-12-14T17:52:42.751Z,6.45
2022-12-14T17:55:17.477Z,6.25
2022-12-14T17:57:45.028Z,6.47
2022-12-14T18:00:34.885Z,6.18
2022-12-14T18:03:02.763Z,5.70
2022-12-14T18:05:31.101Z,6.20
2022-12-14T18:07:58.693Z,7.32
2022-12-14T18:10:26.542Z,6.82
2022-12-14T18:12:53.919Z,6.22
2022-12-14T18:15:24.672Z,6.63
2022-12-14T18:17:52.004Z,6.93
2022-12-14T18:20:20.075Z,7.20
2022-12-14T18:22:49.812Z,7.05
2022-12-14T18:25:24.692Z,6.43
2022-12-14T18:27:52.008Z,6.55
2022-12-14T18:30:22.090Z,7.00
2022-12-14T18:32:49.340Z,7.30
2022-12-14T18:35:20.555Z,6.90
2022-12-14T18:37:49.397Z,7.45
2022-12-14T18:40:18.225Z,7.03
2022-12-14T18:42:45.763Z,7.60
2022-12-14T18:45:21.185Z,7.07
2022-12-14T18:47:48.878Z,8.05
2022-12-14T18:50:17.104Z,7.47
2022-12-14T18:52:44.945Z,7.20
2022-12-14T18:55:16.264Z,7.03
2022-12-14T18:57:43.735Z,7.35
2022-12-14T19:00:14.927Z,6.28
2022-12-14T19:02:43.127Z,7.07
2022-12-14T19:05:11.616Z,7.00
2022-12-14T19:07:39.041Z,7.28
2022-12-14T19:10:06.933Z,7.10
2022-12-14T19:12:34.379Z,6.82
2022-12-14T19:15:01.779Z,7.28
2022-12-14T19:17:29.106Z,6.68
2022-12-14T19:19:56.389Z,7.32
2022-12-14T19:22:27.169Z,7.82
2022-12-14T19:24:54.794Z,7.13
2022-12-14T19:27:42.687Z,8.15
2022-12-14T19:30:11.620Z,6.47
2022-12-14T19:32:38.915Z,7.15
2022-12-14T19:35:06.406Z,6.75
2022-12-14T19:37:33.799Z,7.15
2022-12-14T19:40:02.535Z,7.47
2022-12-14T19:42:32.233Z,7.65
2022-12-14T19:44:59.639Z,6.90
2022-12-14T19:47:27.008Z,6.70
2022-12-14T19:49:54.456Z,7.57
2022-12-14T19:52:21.826Z,7.07
2022-12-14T19:54:49.110Z,7.40
2022-12-14T19:57:16.606Z,7.22
2022-12-14T19:59:43.949Z,6.68
2022-12-14T20:02:15.746Z,7.35
2022-12-14T20:04:43.094Z,7.55
2022-12-14T20:07:10.679Z,7.57
2022-12-14T20:09:38.120Z,7.25
2022-12-14T20:12:05.654Z,7.70
2022-12-14T20:14:32.972Z,7.53
2022-12-14T20:17:00.273Z,7.57
2022-12-14T20:19:28.207Z,7.40
2022-12-14T20:21:55.617Z,7.60
2022-12-14T20:24:22.964Z,8.02
2022-12-14T20:26:50.606Z,7.55
2022-12-14T20:29:18.195Z,7.65
2022-12-14T20:31:45.442Z,7.07
2022-12-14T20:34:12.790Z,6.55
2022-12-14T20:36:40.118Z,7.07
2022-12-14T20:39:07.695Z,7.57
2022-12-14T20:41:35.002Z,6.93
2022-12-14T20:44:02.581Z,6.82
2022-12-14T20:46:29.915Z,7.65
2022-12-14T20:48:57.726Z,7.20
2022-12-14T20:51:25.078Z,7.00
2022-12-14T20:53:52.481Z,6.80
2022-12-14T20:56:20.888Z,7.20
2022-12-14T20:58:48.660Z,7.60
2022-12-14T21:01:17.096Z,6.15
2022-12-14T21:03:46.850Z,6.40
2022-12-14T21:06:18.864Z,6.88
2022-12-14T21:09:01.977Z,6.65
2022-12-14T21:11:48.517Z,6.72
2022-12-14T21:14:16.175Z,6.22
2022-12-14T21:16:43.588Z,6.22
2022-12-14T21:19:12.209Z,7.00
2022-12-14T21:21:41.575Z,7.03
2022-12-14T21:24:10.216Z,6.95
2022-12-14T21:26:37.929Z,7.05
2022-12-14T21:29:06.104Z,6.82
2022-12-14T21:31:33.639Z,6.57
2022-12-14T21:34:01.022Z,6.63
2022-12-14T21:36:28.261Z,6.90
2022-12-14T21:38:55.754Z,6.68
2022-12-14T21:41:41.570Z,6.25
2022-12-14T21:44:08.833Z,6.55
2022-12-14T21:46:36.934Z,6.70
2022-12-14T21:49:06.637Z,6.00
2022-12-14T21:51:34.766Z,7.03
2022-12-14T21:54:02.102Z,5.97
2022-12-14T21:56:52.404Z,6.30
2022-12-14T21:59:25.198Z,6.07
2022-12-14T22:01:53.003Z,6.53
2022-12-14T22:04:20.928Z,6.20
2022-12-14T22:06:49.550Z,6.45
2022-12-14T22:09:17.407Z,6.30
2022-12-14T22:11:44.936Z,6.20
2022-12-14T22:14:16.120Z,6.50
2022-12-14T22:16:43.586Z,6.43
2022-12-14T22:19:14.363Z,6.40
2022-12-14T22:21:41.623Z,6.32
2022-12-14T22:24:09.832Z,6.25
2022-12-14T22:26:40.476Z,6.47
2022-12-14T22:29:08.502Z,6.93
2022-12-14T22:31:36.603Z,6.63
2022-12-14T22:34:04.376Z,6.57
2022-12-14T22:36:31.857Z,6.20
2022-12-14T22:38:59.680Z,6.78
2022-12-14T22:41:27.120Z,6.75
2022-12-14T22:43:56.470Z,6.88
2022-12-14T22:46:24.586Z,6.97
2022-12-14T22:48:51.969Z,7.20
2022-12-14T22:51:19.716Z,6.97
2022-12-14T22:53:49.514Z,7.03
2022-12-14T22:56:27.460Z,7.00
2022-12-14T22:59:09.814Z,6.85
2022-12-14T23:01:38.294Z,7.63
2022-12-14T23:04:06.307Z,7.10
2022-12-14T23:06:34.140Z,7.20
2022-12-14T23:09:19.788Z,7.22
2022-12-14T23:12:08.839Z,7.28
2022-12-14T23:14:57.267Z,7.20
2022-12-14T23:17:44.429Z,7.18
2022-12-14T23:20:30.881Z,7.25
2022-12-14T23:23:16.617Z,7.22
2022-12-14T23:26:02.300Z,7.20
2022-12-14T23:28:50.739Z,7.60
2022-12-14T23:31:36.852Z,7.38
2022-12-14T23:34:22.870Z,6.97
2022-12-14T23:37:08.860Z,7.13
2022-12-14T23:39:55.401Z,7.60
2022-12-14T23:42:41.215Z,6.75
2022-12-14T23:45:27.275Z,7.35
2022-12-14T23:48:15.625Z,7.70
2022-12-14T23:51:01.182Z,7.35
2022-12-14T23:53:49.999Z,7.75
2022-12-14T23:56:36.068Z,7.63
2022-12-14T23:59:26.318Z,7.70
